sensor_id;sensor_type;location;lat;lon;timestamp;pressure;altitude;pressure_sealevel;temperature;humidity
48800;BME280;34611;47.964;7.982;2024-03-07T00:02:15;97177.97;;;10.95;65.07
48800;BME280;34611;47.964;7.982;2024-03-07T00:09:17;97171.25;;;10.92;64.75
48800;BME280;34611;47.964;7.982;2024-03-07T00:16:17;97167.94;;;10.90;64.77
48800;BME280;34611;47.964;7.982;2024-03-07T00:23:17;97166.97;;;10.91;64.84
48800;BME280;34611;47.964;7.982;2024-03-07T00:30:18;97154.94;;;10.90;64.80
48800;BME280;34611;47.964;7.982;2024-03-07T00:37:18;97158.34;;;10.91;64.86
48800;BME280;34611;47.964;7.982;2024-03-07T00:44:18;97155.75;;;10.91;64.82
48800;BME280;34611;47.964;7.982;2024-03-07T00:51:19;97157.53;;;10.90;64.67
48800;BME280;34611;47.964;7.982;2024-03-07T00:58:19;97155.75;;;10.91;64.68
48800;BME280;34611;47.964;7.982;2024-03-07T01:05:20;97146.31;;;10.90;65.00
48800;BME280;34611;47.964;7.982;2024-03-07T01:12:20;97138.50;;;10.90;64.84
48800;BME280;34611;47.964;7.982;2024-03-07T01:19:24;97133.31;;;10.90;64.64
48800;BME280;34611;47.964;7.982;2024-03-07T01:26:24;97116.84;;;10.89;64.82
48800;BME280;34611;47.964;7.982;2024-03-07T01:33:24;97111.81;;;10.88;65.08
48800;BME280;34611;47.964;7.982;2024-03-07T01:40:25;97104.81;;;10.88;64.52
48800;BME280;34611;47.964;7.982;2024-03-07T01:47:25;97091.81;;;10.88;64.49
48800;BME280;34611;47.964;7.982;2024-03-07T01:54:25;97087.53;;;10.87;64.70
48800;BME280;34611;47.964;7.982;2024-03-07T02:01:26;97084.25;;;10.85;64.27
48800;BME280;34611;47.964;7.982;2024-03-07T02:08:28;97070.31;;;10.86;64.48
48800;BME280;34611;47.964;7.982;2024-03-07T02:15:28;97065.09;;;10.86;64.57
48800;BME280;34611;47.964;7.982;2024-03-07T02:22:28;97059.19;;;10.84;64.45
48800;BME280;34611;47.964;7.982;2024-03-07T02:29:29;97052.22;;;10.85;64.63
48800;BME280;34611;47.964;7.982;2024-03-07T02:36:30;97039.34;;;10.83;64.12
48800;BME280;34611;47.964;7.982;2024-03-07T02:43:31;97043.72;;;10.83;64.58
48800;BME280;34611;47.964;7.982;2024-03-07T02:50:31;97033.91;;;10.86;64.33
48800;BME280;34611;47.964;7.982;2024-03-07T02:57:31;97033.19;;;10.84;64.23
48800;BME280;34611;47.964;7.982;2024-03-07T03:04:31;97025.41;;;10.84;64.42
48800;BME280;34611;47.964;7.982;2024-03-07T03:11:32;97020.56;;;10.80;64.05
48800;BME280;34611;47.964;7.982;2024-03-07T03:18:33;97013.31;;;10.83;64.36
48800;BME280;34611;47.964;7.982;2024-03-07T03:25:36;97013.59;;;10.80;64.33
48800;BME280;34611;47.964;7.982;2024-03-07T03:32:38;97012.06;;;10.78;64.29
48800;BME280;34611;47.964;7.982;2024-03-07T03:39:38;97008.66;;;10.77;64.19
48800;BME280;34611;47.964;7.982;2024-03-07T03:46:38;97008.66;;;10.77;64.11
48800;BME280;34611;47.964;7.982;2024-03-07T03:53:38;96995.19;;;10.72;64.21
48800;BME280;34611;47.964;7.982;2024-03-07T04:00:39;96983.16;;;10.71;63.66
48800;BME280;34611;47.964;7.982;2024-03-07T04:07:39;96967.06;;;10.77;63.96
48800;BME280;34611;47.964;7.982;2024-03-07T04:14:42;96963.25;;;10.81;64.31
48800;BME280;34611;47.964;7.982;2024-03-07T04:21:42;96959.38;;;10.76;64.23
48800;BME280;34611;47.964;7.982;2024-03-07T04:28:43;96968.09;;;10.74;63.82
48800;BME280;34611;47.964;7.982;2024-03-07T04:35:43;96964.81;;;10.72;63.85
48800;BME280;34611;47.964;7.982;2024-03-07T04:42:47;96958.56;;;10.75;63.79
48800;BME280;34611;47.964;7.982;2024-03-07T04:49:49;96959.63;;;10.72;63.66
48800;BME280;34611;47.964;7.982;2024-03-07T04:56:50;96959.63;;;10.72;63.50
48800;BME280;34611;47.964;7.982;2024-03-07T05:03:50;96957.00;;;10.72;63.88
48800;BME280;34611;47.964;7.982;2024-03-07T05:10:52;96966.72;;;10.70;63.60
48800;BME280;34611;47.964;7.982;2024-03-07T05:17:52;96965.91;;;10.70;63.69
48800;BME280;34611;47.964;7.982;2024-03-07T05:24:53;96960.00;;;10.68;63.18
48800;BME280;34611;47.964;7.982;2024-03-07T05:31:53;96953.28;;;10.65;63.02
48800;BME280;34611;47.964;7.982;2024-03-07T05:38:53;96957.66;;;10.65;62.92
48800;BME280;34611;47.964;7.982;2024-03-07T05:45:54;96958.41;;;10.56;62.54
48800;BME280;34611;47.964;7.982;2024-03-07T05:52:54;96952.84;;;10.81;63.16
48800;BME280;34611;47.964;7.982;2024-03-07T05:59:54;96948.78;;;10.88;63.73
48800;BME280;34611;47.964;7.982;2024-03-07T06:06:56;96946.88;;;10.90;63.93
48800;BME280;34611;47.964;7.982;2024-03-07T06:13:56;96954.41;;;10.93;64.37
48800;BME280;34611;47.964;7.982;2024-03-07T06:20:58;96950.03;;;10.94;64.38
48800;BME280;34611;47.964;7.982;2024-03-07T06:27:59;96955.09;;;10.96;64.53
48800;BME280;34611;47.964;7.982;2024-03-07T06:34:59;96958.41;;;10.98;64.58
48800;BME280;34611;47.964;7.982;2024-03-07T06:42:01;96953.19;;;10.98;64.76
48800;BME280;34611;47.964;7.982;2024-03-07T06:49:01;96958.41;;;10.98;64.85
48800;BME280;34611;47.964;7.982;2024-03-07T06:56:01;96959.09;;;11.00;64.83
48800;BME280;34611;47.964;7.982;2024-03-07T07:03:04;96961.69;;;11.00;64.85
48800;BME280;34611;47.964;7.982;2024-03-07T07:10:04;96956.50;;;11.00;64.78
48800;BME280;34611;47.964;7.982;2024-03-07T07:17:07;96951.97;;;11.02;64.87
48800;BME280;34611;47.964;7.982;2024-03-07T07:24:07;96958.84;;;11.03;64.95
48800;BME280;34611;47.964;7.982;2024-03-07T07:31:08;96960.63;;;11.02;64.80
48800;BME280;34611;47.964;7.982;2024-03-07T07:38:09;96951.88;;;11.03;65.11
48800;BME280;34611;47.964;7.982;2024-03-07T07:45:11;96954.34;;;11.05;65.11
48800;BME280;34611;47.964;7.982;2024-03-07T07:52:11;96948.31;;;11.04;65.06
48800;BME280;34611;47.964;7.982;2024-03-07T07:59:12;96946.41;;;11.06;64.96
48800;BME280;34611;47.964;7.982;2024-03-07T08:06:12;96947.22;;;11.07;65.23
48800;BME280;34611;47.964;7.982;2024-03-07T08:13:12;96942.03;;;11.07;65.21
48800;BME280;34611;47.964;7.982;2024-03-07T08:20:16;96931.63;;;11.07;65.22
48800;BME280;34611;47.964;7.982;2024-03-07T08:27:18;96926.41;;;11.07;65.18
48800;BME280;34611;47.964;7.982;2024-03-07T08:34:18;96924.63;;;11.07;65.20
48800;BME280;34611;47.964;7.982;2024-03-07T08:41:18;96922.84;;;11.08;65.12
48800;BME280;34611;47.964;7.982;2024-03-07T08:48:19;96915.91;;;11.08;65.22
48800;BME280;34611;47.964;7.982;2024-03-07T08:55:20;96916.72;;;11.09;65.17
48800;BME280;34611;47.964;7.982;2024-03-07T09:02:20;96907.13;;;11.09;65.36
48800;BME280;34611;47.964;7.982;2024-03-07T09:09:20;96907.94;;;11.10;65.15
48800;BME280;34611;47.964;7.982;2024-03-07T09:16:21;96907.94;;;11.10;65.33
48800;BME280;34611;47.964;7.982;2024-03-07T09:23:22;96906.19;;;11.10;65.39
48800;BME280;34611;47.964;7.982;2024-03-07T09:30:23;96885.38;;;11.10;65.27
48800;BME280;34611;47.964;7.982;2024-03-07T09:37:25;96887.00;;;11.11;65.17
48800;BME280;34611;47.964;7.982;2024-03-07T09:44:26;96887.00;;;11.11;65.36
48800;BME280;34611;47.964;7.982;2024-03-07T09:51:28;96889.59;;;11.11;65.18
48800;BME280;34611;47.964;7.982;2024-03-07T09:58:29;96879.31;;;11.10;65.38
48800;BME280;34611;47.964;7.982;2024-03-07T10:05:31;96880.84;;;11.12;65.52
48800;BME280;34611;47.964;7.982;2024-03-07T10:12:31;96877.41;;;11.12;65.44
48800;BME280;34611;47.964;7.982;2024-03-07T10:19:31;96868.66;;;11.13;65.48
48800;BME280;34611;47.964;7.982;2024-03-07T10:26:35;96874.69;;;11.13;65.50
48800;BME280;34611;47.964;7.982;2024-03-07T10:33:35;96874.69;;;11.13;65.51
48800;BME280;34611;47.964;7.982;2024-03-07T10:40:36;96861.69;;;11.13;65.38
48800;BME280;34611;47.964;7.982;2024-03-07T10:47:40;96866.06;;;11.13;65.45
48800;BME280;34611;47.964;7.982;2024-03-07T11:01:49;96857.28;;;11.14;65.43
48800;BME280;34611;47.964;7.982;2024-03-07T11:08:54;96854.69;;;11.14;65.51
48800;BME280;34611;47.964;7.982;2024-03-07T11:15:55;96850.34;;;11.14;65.60
48800;BME280;34611;47.964;7.982;2024-03-07T11:22:57;96851.16;;;11.15;65.60
48800;BME280;34611;47.964;7.982;2024-03-07T11:30:01;96844.97;;;11.16;65.51
48800;BME280;34611;47.964;7.982;2024-03-07T11:37:07;96836.34;;;11.16;65.63
48800;BME280;34611;47.964;7.982;2024-03-07T11:44:09;96820.75;;;11.16;65.53
48800;BME280;34611;47.964;7.982;2024-03-07T11:51:17;96817.31;;;11.15;65.58
48800;BME280;34611;47.964;7.982;2024-03-07T11:58:18;96819.78;;;11.17;65.50
48800;BME280;34611;47.964;7.982;2024-03-07T12:05:21;96816.34;;;11.16;65.73
48800;BME280;34611;47.964;7.982;2024-03-07T12:12:21;96807.59;;;11.17;65.61
48800;BME280;34611;47.964;7.982;2024-03-07T12:19:22;96803.22;;;11.18;65.56
48800;BME280;34611;47.964;7.982;2024-03-07T12:26:23;96797.19;;;11.17;65.80
48800;BME280;34611;47.964;7.982;2024-03-07T12:33:25;96797.19;;;11.17;65.61
48800;BME280;34611;47.964;7.982;2024-03-07T12:40:26;96801.44;;;11.18;65.67
48800;BME280;34611;47.964;7.982;2024-03-07T12:47:29;96784.19;;;11.17;65.78
48800;BME280;34611;47.964;7.982;2024-03-07T12:54:30;96782.41;;;11.18;65.77
48800;BME280;34611;47.964;7.982;2024-03-07T13:01:31;96779.69;;;11.19;65.64
48800;BME280;34611;47.964;7.982;2024-03-07T13:08:33;96770.22;;;11.18;65.87
48800;BME280;34611;47.964;7.982;2024-03-07T13:15:34;96769.28;;;11.19;65.74
48800;BME280;34611;47.964;7.982;2024-03-07T13:22:46;96769.28;;;11.19;65.84
48800;BME280;34611;47.964;7.982;2024-03-07T13:29:49;96764.88;;;11.20;65.73
48800;BME280;34611;47.964;7.982;2024-03-07T13:36:49;96758.88;;;11.19;66.04
48800;BME280;34611;47.964;7.982;2024-03-07T13:43:51;96755.28;;;11.20;65.83
48800;BME280;34611;47.964;7.982;2024-03-07T13:50:51;96764.88;;;11.20;65.87
48800;BME280;34611;47.964;7.982;2024-03-07T13:57:52;96750.09;;;11.20;65.95
48800;BME280;34611;47.964;7.982;2024-03-07T14:05:08;96750.09;;;11.20;66.03
48800;BME280;34611;47.964;7.982;2024-03-07T14:12:27;96743.09;;;11.21;65.87
48800;BME280;34611;47.964;7.982;2024-03-07T14:40:59;96737.75;;;11.22;65.90
48800;BME280;34611;47.964;7.982;2024-03-07T14:47:59;96726.53;;;11.22;65.90
48800;BME280;34611;47.964;7.982;2024-03-07T14:55:00;96725.72;;;11.21;66.02
48800;BME280;34611;47.964;7.982;2024-03-07T15:02:01;96723.94;;;11.22;65.71
48800;BME280;34611;47.964;7.982;2024-03-07T15:09:03;96722.16;;;11.22;66.04
48800;BME280;34611;47.964;7.982;2024-03-07T15:16:03;96716.00;;;11.23;66.07
48800;BME280;34611;47.964;7.982;2024-03-07T15:23:06;96722.16;;;11.22;66.09
48800;BME280;34611;47.964;7.982;2024-03-07T15:30:06;96706.53;;;11.22;66.03
48800;BME280;34611;47.964;7.982;2024-03-07T15:37:11;96701.34;;;11.22;66.19
48800;BME280;34611;47.964;7.982;2024-03-07T15:44:14;96706.53;;;11.22;65.96
48800;BME280;34611;47.964;7.982;2024-03-07T15:51:15;96710.81;;;11.23;65.93
48800;BME280;34611;47.964;7.982;2024-03-07T15:58:15;96696.94;;;11.23;66.03
48800;BME280;34611;47.964;7.982;2024-03-07T16:05:17;96703.00;;;11.23;66.21
48800;BME280;34611;47.964;7.982;2024-03-07T16:12:18;96700.38;;;11.23;66.01
48800;BME280;34611;47.964;7.982;2024-03-07T16:19:18;96707.22;;;11.24;66.08
48800;BME280;34611;47.964;7.982;2024-03-07T16:26:22;96717.63;;;11.24;65.96
48800;BME280;34611;47.964;7.982;2024-03-07T16:33:22;96709.00;;;11.24;66.20
48800;BME280;34611;47.964;7.982;2024-03-07T16:40:25;96711.63;;;11.24;66.00
48800;BME280;34611;47.964;7.982;2024-03-07T16:47:25;96703.00;;;11.23;65.94
48800;BME280;34611;47.964;7.982;2024-03-07T16:54:25;96698.59;;;11.24;66.00
48800;BME280;34611;47.964;7.982;2024-03-07T17:01:26;96696.00;;;11.24;66.03
48800;BME280;34611;47.964;7.982;2024-03-07T17:08:26;96692.44;;;11.25;66.13
48800;BME280;34611;47.964;7.982;2024-03-07T17:15:27;96693.41;;;11.24;66.20
48800;BME280;34611;47.964;7.982;2024-03-07T17:22:27;96700.22;;;11.25;66.23
48800;BME280;34611;47.964;7.982;2024-03-07T17:29:27;96705.44;;;11.25;66.09
48800;BME280;34611;47.964;7.982;2024-03-07T17:36:28;96709.81;;;11.24;66.03
48800;BME280;34611;47.964;7.982;2024-03-07T17:43:32;96715.84;;;11.25;66.25
48800;BME280;34611;47.964;7.982;2024-03-07T17:50:33;96709.81;;;11.24;66.19
48800;BME280;34611;47.964;7.982;2024-03-07T17:57:33;96701.06;;;11.25;66.17
48800;BME280;34611;47.964;7.982;2024-03-07T18:04:33;96702.84;;;11.25;66.12
48800;BME280;34611;47.964;7.982;2024-03-07T18:11:33;96694.22;;;11.24;65.99
48800;BME280;34611;47.964;7.982;2024-03-07T18:18:34;96676.00;;;11.24;65.98
48800;BME280;34611;47.964;7.982;2024-03-07T18:25:34;96673.41;;;11.24;66.26
48800;BME280;34611;47.964;7.982;2024-03-07T18:32:38;96667.25;;;11.25;66.13
48800;BME280;34611;47.964;7.982;2024-03-07T18:39:39;96650.78;;;11.25;66.10
48800;BME280;34611;47.964;7.982;2024-03-07T18:46:42;96649.03;;;11.25;66.23
48800;BME280;34611;47.964;7.982;2024-03-07T18:53:42;96653.41;;;11.25;66.11
48800;BME280;34611;47.964;7.982;2024-03-07T19:00:43;96644.78;;;11.05;64.04
48800;BME280;34611;47.964;7.982;2024-03-07T19:07:44;96632.03;;;11.02;63.75
48800;BME280;34611;47.964;7.982;2024-03-07T19:14:45;96630.97;;;10.94;62.70
48800;BME280;34611;47.964;7.982;2024-03-07T19:21:45;96625.34;;;10.99;62.77
48800;BME280;34611;47.964;7.982;2024-03-07T19:28:46;96624.78;;;10.96;62.33
48800;BME280;34611;47.964;7.982;2024-03-07T19:35:48;96623.97;;;10.76;61.41
48800;BME280;34611;47.964;7.982;2024-03-07T19:42:50;96628.22;;;10.67;60.82
48800;BME280;34611;47.964;7.982;2024-03-07T19:49:51;96629.59;;;10.71;60.71
48800;BME280;34611;47.964;7.982;2024-03-07T19:56:51;96627.78;;;10.71;60.93
48800;BME280;34611;47.964;7.982;2024-03-07T20:03:52;96617.53;;;10.70;60.78
48800;BME280;34611;47.964;7.982;2024-03-07T20:10:52;96599.59;;;10.67;60.74
48800;BME280;34611;47.964;7.982;2024-03-07T20:17:52;96588.53;;;10.65;60.60
48800;BME280;34611;47.964;7.982;2024-03-07T20:24:53;96597.00;;;10.67;60.33
48800;BME280;34611;47.964;7.982;2024-03-07T20:31:54;96593.28;;;10.60;60.00
48800;BME280;34611;47.964;7.982;2024-03-07T20:38:54;96596.31;;;10.65;59.92
48800;BME280;34611;47.964;7.982;2024-03-07T20:45:55;96579.19;;;10.62;59.77
48800;BME280;34611;47.964;7.982;2024-03-07T20:52:56;96583.59;;;10.62;60.40
48800;BME280;34611;47.964;7.982;2024-03-07T20:59:56;96584.56;;;10.61;59.58
48800;BME280;34611;47.964;7.982;2024-03-07T21:06:56;96561.69;;;10.55;59.48
48800;BME280;34611;47.964;7.982;2024-03-07T21:13:57;96559.50;;;10.60;59.57
48800;BME280;34611;47.964;7.982;2024-03-07T21:20:57;96566.06;;;10.64;60.02
48800;BME280;34611;47.964;7.982;2024-03-07T21:27:57;96559.50;;;10.60;59.81
48800;BME280;34611;47.964;7.982;2024-03-07T21:34:58;96555.13;;;10.60;59.87
48800;BME280;34611;47.964;7.982;2024-03-07T21:41:58;96557.19;;;10.57;59.90
48800;BME280;34611;47.964;7.982;2024-03-07T21:48:58;96549.91;;;10.60;59.92
48800;BME280;34611;47.964;7.982;2024-03-07T21:56:01;96544.19;;;10.57;59.73
48800;BME280;34611;47.964;7.982;2024-03-07T22:03:02;96526.13;;;10.55;59.74
48800;BME280;34611;47.964;7.982;2024-03-07T22:10:02;96535.16;;;10.61;60.27
48800;BME280;34611;47.964;7.982;2024-03-07T22:17:04;96524.22;;;10.67;60.90
48800;BME280;34611;47.964;7.982;2024-03-07T22:24:05;96522.56;;;10.66;60.76
48800;BME280;34611;47.964;7.982;2024-03-07T22:31:07;96510.13;;;10.60;59.97
48800;BME280;34611;47.964;7.982;2024-03-07T22:38:09;96508.06;;;10.63;60.52
48800;BME280;34611;47.964;7.982;2024-03-07T22:45:13;96497.13;;;10.60;60.32
48800;BME280;34611;47.964;7.982;2024-03-07T22:52:16;96497.94;;;10.60;59.91
48800;BME280;34611;47.964;7.982;2024-03-07T22:59:16;96487.41;;;10.52;59.70
48800;BME280;34611;47.964;7.982;2024-03-07T23:06:17;96478.94;;;10.60;60.07
48800;BME280;34611;47.964;7.982;2024-03-07T23:13:17;96472.78;;;10.61;60.44
48800;BME280;34611;47.964;7.982;2024-03-07T23:20:18;96457.19;;;10.61;60.18
48800;BME280;34611;47.964;7.982;2024-03-07T23:27:21;96449.53;;;10.59;60.36
48800;BME280;34611;47.964;7.982;2024-03-07T23:34:21;96456.75;;;10.56;59.92
48800;BME280;34611;47.964;7.982;2024-03-07T23:41:21;96464.31;;;10.59;59.76
48800;BME280;34611;47.964;7.982;2024-03-07T23:48:21;96455.41;;;10.61;59.65
48800;BME280;34611;47.964;7.982;2024-03-07T23:55:22;96454.84;;;10.58;60.00
